createdAt,value
2022-09-26T00:02:41.244Z,1.80
2022-09-26T00:05:32.337Z,1.57
2022-09-26T00:08:20.245Z,1.87
2022-09-26T00:11:09.185Z,2.07
2022-09-26T00:13:59.077Z,1.60
2022-09-26T00:16:47.159Z,2.23
2022-09-26T00:19:34.291Z,2.10
2022-09-26T00:22:21.793Z,1.57
2022-09-26T00:25:09.714Z,1.80
2022-09-26T00:27:56.780Z,1.80
2022-09-26T00:35:27.957Z,1.63
2022-09-26T00:38:15.662Z,1.90
2022-09-26T00:41:04.389Z,1.87
2022-09-26T00:43:56.983Z,1.87
2022-09-26T00:46:48.470Z,1.70
2022-09-26T00:49:40.112Z,1.60
2022-09-26T00:52:33.111Z,1.87
2022-09-26T00:55:25.132Z,1.50
2022-09-26T00:58:18.882Z,1.80
2022-09-26T01:01:07.808Z,1.77
2022-09-26T01:03:56.697Z,1.43
2022-09-26T01:06:45.227Z,2.00
2022-09-26T01:09:33.120Z,1.40
2022-09-26T01:12:22.149Z,2.07
2022-09-26T01:30:10.012Z,1.70
2022-09-26T01:33:21.943Z,2.03
2022-09-26T01:36:22.860Z,1.63
2022-09-26T01:39:16.304Z,2.57
2022-09-26T01:42:38.933Z,1.67
2022-09-26T01:45:38.646Z,2.00
2022-09-26T01:48:42.831Z,1.67
2022-09-26T01:51:43.431Z,2.10
2022-09-26T01:54:37.830Z,2.00
2022-09-26T01:57:31.495Z,1.47
2022-09-26T02:00:19.705Z,1.53
2022-09-26T02:03:13.244Z,1.70
2022-09-26T02:06:06.156Z,1.40
2022-09-26T02:09:05.153Z,1.63
2022-09-26T02:11:55.889Z,1.37
2022-09-26T02:14:45.814Z,1.50
2022-09-26T02:17:38.262Z,1.30
2022-09-26T02:20:30.860Z,1.63
2022-09-26T02:23:18.370Z,1.80
2022-09-26T02:26:06.297Z,1.60
2022-09-26T02:28:53.794Z,1.50
2022-09-26T02:31:58.338Z,1.43
2022-09-26T02:34:48.266Z,1.37
2022-09-26T02:37:36.446Z,1.43
2022-09-26T02:40:31.846Z,1.50
2022-09-26T02:43:26.859Z,1.40
2022-09-26T02:46:23.220Z,1.60
2022-09-26T02:49:16.965Z,1.47
2022-09-26T02:52:19.630Z,1.87
2022-09-26T02:55:45.663Z,1.40
2022-09-26T02:58:42.745Z,1.33
2022-09-26T03:01:53.973Z,1.43
2022-09-26T03:04:44.294Z,1.33
2022-09-26T03:07:37.880Z,1.50
2022-09-26T03:10:28.182Z,1.10
2022-09-26T03:13:18.489Z,1.57
2022-09-26T03:16:07.023Z,1.67
2022-09-26T03:19:00.739Z,1.43
2022-09-26T03:21:48.427Z,1.60
2022-09-26T03:24:41.054Z,1.40
2022-09-26T03:27:28.505Z,1.70
2022-09-26T03:30:17.203Z,1.93
2022-09-26T03:33:04.586Z,1.60
2022-09-26T03:35:52.289Z,1.73
2022-09-26T03:38:39.765Z,1.70
2022-09-26T03:41:26.830Z,1.77
2022-09-26T03:44:15.757Z,1.87
2022-09-26T03:47:03.463Z,1.50
2022-09-26T03:49:51.019Z,1.73
2022-09-26T03:52:38.074Z,1.80
2022-09-26T03:55:25.538Z,1.73
2022-09-26T03:58:13.011Z,1.67
2022-09-26T04:01:21.190Z,1.60
2022-09-26T04:04:08.369Z,1.73
2022-09-26T04:06:55.812Z,1.70
2022-09-26T04:09:43.289Z,1.80
2022-09-26T04:12:30.389Z,1.83
2022-09-26T04:15:17.849Z,1.80
2022-09-26T04:18:05.290Z,1.63
2022-09-26T04:21:00.766Z,1.40
2022-09-26T04:23:48.058Z,1.60
2022-09-26T04:26:35.149Z,1.53
2022-09-26T04:29:22.846Z,1.40
2022-09-26T04:32:10.525Z,1.93
2022-09-26T04:35:27.274Z,2.10
2022-09-26T04:38:15.560Z,1.60
2022-09-26T04:41:04.780Z,1.63
2022-09-26T04:43:54.481Z,1.80
2022-09-26T04:46:42.137Z,1.60
2022-09-26T04:49:29.782Z,2.00
2022-09-26T04:52:17.342Z,1.73
2022-09-26T04:55:05.278Z,1.73
2022-09-26T04:57:52.890Z,1.80
2022-09-26T05:00:49.672Z,1.43
2022-09-26T05:03:37.799Z,2.17
2022-09-26T05:06:25.234Z,1.47
2022-09-26T05:09:12.429Z,1.90
2022-09-26T05:11:59.690Z,1.70
2022-09-26T05:14:46.894Z,1.90
2022-09-26T05:17:36.061Z,1.67
2022-09-26T05:20:24.511Z,1.67
2022-09-26T05:23:12.031Z,1.33
2022-09-26T05:26:18.238Z,1.83
2022-09-26T05:29:14.467Z,1.60
2022-09-26T05:32:02.176Z,1.43
2022-09-26T05:34:49.340Z,1.87
2022-09-26T05:37:36.777Z,1.93
2022-09-26T05:40:43.197Z,2.30
2022-09-26T05:46:18.484Z,1.77
2022-09-26T05:49:06.641Z,2.03
2022-09-26T05:51:54.213Z,2.00
2022-09-26T05:54:41.293Z,2.37
2022-09-26T05:57:28.736Z,2.43
2022-09-26T06:00:16.209Z,1.33
2022-09-26T06:03:03.694Z,1.93
2022-09-26T06:05:51.965Z,1.70
2022-09-26T06:08:40.704Z,2.10
2022-09-26T06:11:30.643Z,1.93
2022-09-26T06:14:18.330Z,1.80
2022-09-26T06:17:05.395Z,2.00
2022-09-26T06:19:52.618Z,1.60
2022-09-26T06:22:41.420Z,2.00
2022-09-26T06:25:29.568Z,1.87
2022-09-26T06:28:18.449Z,1.93
2022-09-26T06:31:23.060Z,1.90
2022-09-26T06:34:12.764Z,2.23
2022-09-26T06:36:59.980Z,2.07
2022-09-26T06:39:47.147Z,2.60
2022-09-26T06:42:38.138Z,2.03
2022-09-26T06:45:26.532Z,1.80
2022-09-26T06:48:13.667Z,2.03
2022-09-26T06:51:01.143Z,1.70
2022-09-26T06:53:48.349Z,1.70
2022-09-26T06:56:35.566Z,2.00
2022-09-26T06:59:26.250Z,2.03
2022-09-26T07:02:16.945Z,2.30
2022-09-26T07:05:05.544Z,2.40
2022-09-26T07:07:55.009Z,1.97
2022-09-26T07:10:42.721Z,2.23
2022-09-26T07:13:29.943Z,2.37
2022-09-26T07:16:17.268Z,2.10
2022-09-26T07:19:04.806Z,2.33
2022-09-26T07:21:52.108Z,1.97
2022-09-26T07:24:39.816Z,2.10
2022-09-26T07:27:27.350Z,1.90
2022-09-26T07:30:14.927Z,1.70
2022-09-26T07:33:03.771Z,2.50
2022-09-26T07:35:53.683Z,2.03
2022-09-26T07:38:40.954Z,2.17
2022-09-26T07:41:31.595Z,2.43
2022-09-26T07:45:09.305Z,2.50
2022-09-26T07:47:45.376Z,2.03
2022-09-26T07:50:33.084Z,2.33
2022-09-26T07:53:23.594Z,2.40
2022-09-26T07:56:11.526Z,2.27
2022-09-26T07:58:59.190Z,2.40
2022-09-26T08:01:47.137Z,2.80
2022-09-26T08:04:34.853Z,2.70
2022-09-26T08:07:22.967Z,3.47
2022-09-26T08:10:22.024Z,2.17
2022-09-26T08:13:09.828Z,2.47
2022-09-26T08:16:03.912Z,2.50
2022-09-26T08:18:52.537Z,3.30
2022-09-26T08:21:40.034Z,3.10
2022-09-26T08:24:27.926Z,2.37
2022-09-26T08:27:16.573Z,2.27
2022-09-26T08:30:04.493Z,3.00
2022-09-26T08:32:59.081Z,2.20
2022-09-26T08:35:48.512Z,3.03
2022-09-26T08:38:36.778Z,2.23
2022-09-26T08:41:41.513Z,2.70
2022-09-26T08:44:42.074Z,2.80
2022-09-26T08:47:47.236Z,3.17
2022-09-26T08:51:12.290Z,2.80
2022-09-26T08:54:15.996Z,2.23
2022-09-26T08:57:15.459Z,2.93
2022-09-26T09:00:27.502Z,2.97
2022-09-26T09:03:34.637Z,2.70
2022-09-26T09:06:21.916Z,2.53
2022-09-26T09:09:16.001Z,2.33
2022-09-26T09:12:28.917Z,2.87
2022-09-26T09:15:43.275Z,2.67
2022-09-26T09:18:34.009Z,2.70
2022-09-26T09:22:01.152Z,3.00
2022-09-26T09:28:08.301Z,2.90
2022-09-26T09:31:10.479Z,3.63
2022-09-26T09:34:02.256Z,2.80
2022-09-26T09:36:56.868Z,2.90
2022-09-26T09:39:47.672Z,3.27
2022-09-26T09:42:48.076Z,3.07
2022-09-26T09:45:49.145Z,3.23
2022-09-26T09:48:36.993Z,3.40
2022-09-26T09:52:12.572Z,2.63
2022-09-26T09:55:25.495Z,3.30
2022-09-26T09:58:25.699Z,3.83
2022-09-26T10:01:25.992Z,3.20
2022-09-26T10:04:28.596Z,3.23
2022-09-26T10:07:16.287Z,3.30
2022-09-26T10:10:05.251Z,3.20
2022-09-26T10:12:52.733Z,3.97
2022-09-26T10:15:56.161Z,3.17
2022-09-26T10:19:06.384Z,3.63
2022-09-26T10:21:53.949Z,4.57
2022-09-26T10:24:41.535Z,3.60
2022-09-26T10:27:40.183Z,2.80
2022-09-26T10:30:32.264Z,2.40
2022-09-26T10:33:34.347Z,2.87
2022-09-26T10:39:49.959Z,2.23
2022-09-26T10:42:38.180Z,2.17
2022-09-26T10:45:29.406Z,1.80
2022-09-26T10:48:22.170Z,1.77
2022-09-26T10:51:11.380Z,1.13
2022-09-26T10:54:08.178Z,1.33
2022-09-26T10:56:59.361Z,1.60
2022-09-26T10:59:57.253Z,1.50
2022-09-26T11:02:47.164Z,1.70
2022-09-26T11:05:59.836Z,1.90
2022-09-26T11:08:52.119Z,1.97
2022-09-26T11:11:42.279Z,2.27
2022-09-26T11:14:30.110Z,1.90
2022-09-26T11:17:19.179Z,2.20
2022-09-26T11:20:09.491Z,1.93
2022-09-26T11:23:23.104Z,2.50
2022-09-26T11:26:20.049Z,2.03
2022-09-26T11:29:08.113Z,2.17
2022-09-26T11:32:00.144Z,2.00
2022-09-26T11:34:47.895Z,2.20
2022-09-26T11:37:45.262Z,1.80
2022-09-26T12:33:10.358Z,2.23
2022-09-26T12:36:28.462Z,2.30
2022-09-26T12:39:19.109Z,1.93
2022-09-26T12:42:12.659Z,2.53
2022-09-26T12:45:38.992Z,2.40
2022-09-26T12:48:42.348Z,3.17
2022-09-26T12:51:43.870Z,2.50
2022-09-26T12:55:13.187Z,2.63
2022-09-26T12:58:02.250Z,2.83
2022-09-26T13:01:00.091Z,2.50
2022-09-26T13:04:06.296Z,2.80
2022-09-26T13:07:26.480Z,3.03
2022-09-26T13:10:28.740Z,2.00
2022-09-26T13:13:37.717Z,2.40
2022-09-26T13:16:34.287Z,2.17
2022-09-26T13:19:34.752Z,2.93
2022-09-26T13:22:41.155Z,2.57
2022-09-26T13:25:39.177Z,2.80
2022-09-26T13:29:23.582Z,2.90
2022-09-26T13:32:14.125Z,2.37
2022-09-26T13:35:21.334Z,2.93
2022-09-26T13:38:22.485Z,2.63
2022-09-26T13:41:22.131Z,2.50
2022-09-26T13:44:34.116Z,2.83
2022-09-26T13:47:39.288Z,3.07
2022-09-26T13:50:48.827Z,2.70
2022-09-26T13:54:03.240Z,2.70
2022-09-26T13:56:51.025Z,2.93
2022-09-26T13:59:52.027Z,3.27
2022-09-26T14:02:42.558Z,2.60
2022-09-26T14:05:49.827Z,2.97
2022-09-26T14:09:16.297Z,3.00
2022-09-26T14:12:20.235Z,3.63
2022-09-26T14:15:17.067Z,3.73
2022-09-26T14:18:15.609Z,3.37
2022-09-26T14:21:33.031Z,4.17
2022-09-26T14:24:28.184Z,3.30
2022-09-26T14:27:15.701Z,3.40
2022-09-26T14:30:24.921Z,4.00
2022-09-26T14:33:14.933Z,3.53
2022-09-26T14:36:30.974Z,2.97
2022-09-26T14:39:44.704Z,2.90
2022-09-26T14:42:49.906Z,3.13
2022-09-26T14:45:38.140Z,3.30
2022-09-26T14:48:39.443Z,3.27
2022-09-26T14:51:31.041Z,2.63
2022-09-26T14:54:23.995Z,2.53
2022-09-26T14:57:27.243Z,2.23
2022-09-26T15:00:45.595Z,2.70
2022-09-26T15:03:34.741Z,2.93
2022-09-26T15:06:23.263Z,3.40
2022-09-26T15:09:18.026Z,2.80
2022-09-26T15:12:16.571Z,3.33
2022-09-26T15:18:56.768Z,2.57
2022-09-26T15:21:50.839Z,2.50
2022-09-26T15:24:42.204Z,2.27
2022-09-26T15:27:30.159Z,2.20
2022-09-26T15:30:28.405Z,2.17
2022-09-26T15:33:24.391Z,2.53
2022-09-26T15:36:21.316Z,1.90
2022-09-26T15:39:33.336Z,2.60
2022-09-26T15:42:58.413Z,2.50
2022-09-26T15:45:46.755Z,2.57
2022-09-26T15:48:44.481Z,2.67
2022-09-26T15:51:46.659Z,2.43
2022-09-26T15:54:34.882Z,2.63
2022-09-26T15:57:22.705Z,2.10
2022-09-26T16:00:26.930Z,2.53
2022-09-26T16:24:34.406Z,1.93
2022-09-26T16:27:25.529Z,2.57
2022-09-26T16:30:28.048Z,2.33
2022-09-26T16:33:32.096Z,2.90
2022-09-26T16:36:21.334Z,2.77
2022-09-26T16:39:19.523Z,2.07
2022-09-26T16:42:16.785Z,2.50
2022-09-26T16:45:06.104Z,2.53
2022-09-26T16:47:53.992Z,2.43
2022-09-26T16:54:18.833Z,2.00
2022-09-26T16:57:15.540Z,2.97
2022-09-26T17:00:43.014Z,2.70
2022-09-26T17:03:32.385Z,2.70
2022-09-26T17:06:22.666Z,2.17
2022-09-26T17:09:20.091Z,2.57
2022-09-26T17:49:43.152Z,3.60
2022-09-26T17:52:33.333Z,3.80
2022-09-26T17:55:21.885Z,2.60
2022-09-26T17:58:18.209Z,2.30
2022-09-26T18:01:09.349Z,2.53
2022-09-26T18:04:01.025Z,2.97
2022-09-26T18:06:54.235Z,3.43
2022-09-26T18:09:45.039Z,2.50
2022-09-26T18:12:33.500Z,2.70
2022-09-26T18:15:24.126Z,3.33
2022-09-26T18:18:31.917Z,3.30
2022-09-26T18:21:20.054Z,3.63
2022-09-26T18:24:19.217Z,3.27
2022-09-26T18:27:10.948Z,2.93
2022-09-26T18:30:01.551Z,2.90
2022-09-26T18:32:55.253Z,2.40
2022-09-26T18:35:45.638Z,2.40
2022-09-26T18:38:35.467Z,2.47
2022-09-26T18:41:30.940Z,2.00
2022-09-26T18:44:28.591Z,2.47
2022-09-26T18:47:18.351Z,1.60
2022-09-26T18:50:07.660Z,2.20
2022-09-26T18:53:26.954Z,1.63
2022-09-26T18:56:39.785Z,1.77
2022-09-26T19:00:01.746Z,2.20
2022-09-26T19:03:05.930Z,2.33
2022-09-26T19:06:18.116Z,2.00
2022-09-26T19:09:49.549Z,1.70
2022-09-26T19:28:55.523Z,2.43
2022-09-26T19:35:55.670Z,2.10
2022-09-26T19:38:59.480Z,2.20
2022-09-26T19:41:54.195Z,2.10
2022-09-26T19:45:09.938Z,1.80
2022-09-26T19:48:08.963Z,2.78
2022-09-26T19:50:58.346Z,1.80
2022-09-26T19:54:19.129Z,2.13
2022-09-26T19:57:29.541Z,1.80
2022-09-26T20:00:20.465Z,1.73
2022-09-26T20:03:41.023Z,2.63
2022-09-26T20:06:32.566Z,1.90
2022-09-26T20:09:25.901Z,1.50
2022-09-26T20:12:13.934Z,1.67
2022-09-26T20:15:01.625Z,1.70
2022-09-26T20:17:54.064Z,1.80
2022-09-26T20:21:14.471Z,2.03
2022-09-26T20:24:24.145Z,1.87
2022-09-26T20:31:33.193Z,3.10
2022-09-26T20:59:15.460Z,1.93
2022-09-26T21:04:38.826Z,1.50
2022-09-26T21:12:36.544Z,1.30
2022-09-26T21:15:19.476Z,1.80
2022-09-26T21:22:45.290Z,1.03
2022-09-26T21:25:32.942Z,1.10
2022-09-26T21:28:29.113Z,0.90
2022-09-26T21:31:27.160Z,1.10
2022-09-26T21:34:36.390Z,1.40
2022-09-26T21:37:26.831Z,1.30
2022-09-26T21:40:16.912Z,1.17
2022-09-26T21:43:11.018Z,1.27
2022-09-26T21:46:03.022Z,1.00
2022-09-26T21:48:55.040Z,1.50
2022-09-26T21:51:51.655Z,0.80
2022-09-26T21:54:50.461Z,1.10
2022-09-26T21:57:52.532Z,0.70
2022-09-26T22:00:45.379Z,0.80
2022-09-26T22:03:33.318Z,0.87
2022-09-26T22:06:22.119Z,0.77
